Terminal Aerodrome Forecast
Issued by NWS Upton, NY

Home | Current Version | Previous Version | Text Only | Print | Product List | Glossary On
Versions: 1 2 3 4 5 6 7 8 9 10 11 12 13 14 15 16 17 18 19 20 21 22 23 24 25 26 27 28 29 30 31 32 33 34 35 36 37 38 39 40 41 42 43 44 45
421
FTUS41 KOKX 191540 AAC
TAFEWR
TAF AMD
KEWR 191540Z 1916/2018 31009KT P6SM SCT025 SCT250
     FM200200 35006KT P6SM SCT025 SCT250
     FM200600 02004KT P6SM FEW020
     FM201400 10005KT P6SM SCT020 BKN040
     FM201600 12005KT P6SM SCT015 BKN025=

USA.gov is the U.S. government's official web portal to all federal, state and local government web resources and services.